createdAt,value
2018-07-28T00:02:36.866Z,14
2018-07-28T00:07:38.690Z,15
2018-07-28T00:12:41.186Z,17
2018-07-28T00:17:43.520Z,15
2018-07-28T00:22:46.085Z,14
2018-07-28T00:27:48.828Z,13
2018-07-28T00:32:51.155Z,13
2018-07-28T00:37:53.288Z,15
2018-07-28T00:42:55.760Z,14
2018-07-28T00:47:58.188Z,14
2018-07-28T00:53:00.650Z,14
2018-07-28T00:58:03.112Z,13
2018-07-28T01:03:05.523Z,13
2018-07-28T01:08:08.029Z,13
2018-07-28T01:13:10.415Z,15
2018-07-28T01:18:12.953Z,14
2018-07-28T01:23:15.347Z,15
2018-07-28T01:28:17.758Z,14
2018-07-28T01:33:20.426Z,14
2018-07-28T01:38:22.579Z,15
2018-07-28T01:43:25.033Z,15
2018-07-28T01:48:27.483Z,14
2018-07-28T01:53:29.997Z,15
2018-07-28T01:58:32.349Z,15
2018-07-28T02:03:34.801Z,15
2018-07-28T02:08:37.279Z,16
2018-07-28T02:13:39.787Z,16
2018-07-28T02:18:42.099Z,16
2018-07-28T02:23:44.548Z,14
2018-07-28T02:28:47.198Z,17
2018-07-28T02:33:49.712Z,16
2018-07-28T02:38:52.372Z,17
2018-07-28T02:43:54.421Z,18
2018-07-28T02:48:56.800Z,17
2018-07-28T02:53:59.228Z,16
2018-07-28T02:59:01.967Z,18
2018-07-28T03:04:04.133Z,17
2018-07-28T03:09:06.512Z,16
2018-07-28T03:14:09.469Z,16
2018-07-28T03:19:11.450Z,16
2018-07-28T03:24:14.132Z,17
2018-07-28T03:29:16.303Z,17
2018-07-28T03:34:18.711Z,16
2018-07-28T03:39:21.190Z,16
2018-07-28T03:44:23.806Z,16
2018-07-28T03:49:26.089Z,17
2018-07-28T03:54:28.873Z,16
2018-07-28T03:59:30.943Z,16
2018-07-28T04:04:33.648Z,17
2018-07-28T04:09:35.791Z,17
2018-07-28T04:14:38.262Z,18
2018-07-28T04:24:43.189Z,17
2018-07-28T04:29:45.723Z,17
2018-07-28T04:34:48.005Z,16
2018-07-28T04:39:50.463Z,16
2018-07-28T04:44:52.925Z,17
2018-07-28T04:49:55.538Z,18
2018-07-28T04:54:57.771Z,17
2018-07-28T05:00:00.269Z,16
2018-07-28T05:05:02.704Z,16
2018-07-28T05:10:05.894Z,16
2018-07-28T05:15:07.801Z,16
2018-07-28T05:20:10.598Z,16
2018-07-28T05:25:12.518Z,13
2018-07-28T05:30:15.043Z,12
2018-07-28T05:35:17.287Z,11
2018-07-28T05:40:19.772Z,11
2018-07-28T05:45:22.469Z,10
2018-07-28T05:50:24.850Z,10
2018-07-28T05:55:27.085Z,9
2018-07-28T06:00:29.552Z,9
2018-07-28T06:05:32.013Z,9
2018-07-28T06:10:34.428Z,9
2018-07-28T06:15:37.049Z,9
2018-07-28T06:20:39.353Z,9
2018-07-28T06:30:44.240Z,9
2018-07-28T06:35:46.612Z,9
2018-07-28T06:40:49.078Z,9
2018-07-28T06:45:51.528Z,9
2018-07-28T06:50:53.964Z,8
2018-07-28T06:55:56.497Z,8
2018-07-28T07:00:58.919Z,9
2018-07-28T07:06:01.292Z,10
2018-07-28T07:11:03.916Z,9
2018-07-28T07:16:06.173Z,9
2018-07-28T07:21:08.619Z,9
2018-07-28T07:26:11.077Z,10
2018-07-28T07:31:13.648Z,9
2018-07-28T07:36:16.051Z,9
2018-07-28T07:41:18.380Z,9
2018-07-28T07:46:20.893Z,10
2018-07-28T07:51:23.255Z,11
2018-07-28T07:56:25.701Z,8
2018-07-28T08:01:28.228Z,7
2018-07-28T08:06:30.673Z,7
2018-07-28T08:11:33.030Z,6
2018-07-28T08:16:35.747Z,9
2018-07-28T08:21:38.036Z,6
2018-07-28T08:26:40.381Z,6
2018-07-28T08:31:42.801Z,5
2018-07-28T08:36:45.287Z,7
2018-07-28T08:41:47.871Z,5
2018-07-28T08:46:50.150Z,5
2018-07-28T08:51:52.735Z,6
2018-07-28T08:56:55.012Z,5
2018-07-28T09:01:57.460Z,4
